Time;durP1;ratioP1;P1;durP2;ratioP2;P2;SDS_P1;SDS_P2;PMS_P1;PMS_P2;Temp;Humidity;BMP_temperature;BMP_pressure;BME280_temperature;BME280_humidity;BME280_pressure;Samples;Min_cycle;Max_cycle;Signal;HPM_P1;HPM_P2
2022/09/08 00:02:01;;;;;;;7.30;1.70;;;;;;;18.87;79.03;100887.50;5009500;28;20041;-78
2022/09/08 00:04:26;;;;;;;3.67;1.80;;;;;;;18.89;78.96;100887.38;5042230;28;20041;-77
2022/09/08 00:06:53;;;;;;;3.10;1.73;;;;;;;18.90;78.98;100889.06;5035143;28;20025;-78
2022/09/08 00:09:19;;;;;;;1.73;1.40;;;;;;;18.91;78.98;100893.44;5035090;28;20052;-78
2022/09/08 00:11:45;;;;;;;3.13;1.80;;;;;;;18.91;78.98;100886.31;5010825;28;20324;-78
2022/09/08 00:14:11;;;;;;;6.90;1.92;;;;;;;18.92;78.93;100890.66;5036178;28;20059;-78
2022/09/08 00:16:39;;;;;;;4.85;2.00;;;;;;;18.93;79.13;100894.16;5036884;28;20033;-78
2022/09/08 00:19:04;;;;;;;4.68;1.70;;;;;;;18.94;79.02;100882.59;5036179;28;20382;-77
2022/09/08 00:21:30;;;;;;;3.38;1.95;;;;;;;18.94;79.09;100869.31;5018710;28;20056;-78
2022/09/08 00:23:55;;;;;;;4.63;1.65;;;;;;;18.93;79.11;100873.75;4996172;28;20357;-78
2022/09/08 00:26:21;;;;;;;4.18;1.70;;;;;;;18.94;78.88;100867.50;5036586;28;20044;-78
2022/09/08 00:28:48;;;;;;;2.53;1.50;;;;;;;18.94;78.97;100867.50;5036287;28;20040;-78
2022/09/08 00:31:13;;;;;;;3.80;1.60;;;;;;;18.94;78.83;100864.84;5003641;28;20371;-77
2022/09/08 00:33:39;;;;;;;5.10;1.77;;;;;;;18.95;78.95;100860.38;4997816;28;20081;-78
2022/09/08 00:36:07;;;;;;;7.15;1.88;;;;;;;18.94;78.80;100859.53;5011051;28;20092;-78
2022/09/08 00:38:33;;;;;;;6.77;1.70;;;;;;;18.94;78.84;100851.59;5041435;28;20056;-77
2022/09/08 00:40:58;;;;;;;5.88;1.73;;;;;;;18.94;78.89;100854.25;5054015;28;20016;-78
2022/09/08 00:43:35;;;;;;;4.43;1.88;;;;;;;18.94;79.21;100846.28;5036413;28;20036;-77
2022/09/08 00:46:10;;;;;;;4.45;1.60;;;;;;;18.94;79.01;100840.97;5046666;28;20031;-77
2022/09/08 00:48:44;;;;;;;5.95;1.73;;;;;;;18.94;79.02;100837.47;5047663;28;20038;-77
2022/09/08 00:51:09;;;;;;;3.50;2.13;;;;;;;18.93;79.06;100841.91;5053942;28;20352;-77
2022/09/08 00:53:40;;;;;;;2.65;1.73;;;;;;;18.93;78.76;100841.91;5032869;28;20036;-77
2022/09/08 00:56:06;;;;;;;4.40;1.67;;;;;;;18.92;79.06;100840.25;5019037;28;20037;-78
2022/09/08 00:58:36;;;;;;;2.92;1.90;;;;;;;18.92;79.09;100839.41;5026211;28;20241;-77
2022/09/08 01:04:24;;;;;;;3.17;1.60;;;;;;;18.91;79.06;100835.88;4714656;28;20086;-79
2022/09/08 01:12:45;;;;;;;3.65;1.90;;;;;;;18.89;79.33;100840.47;5041957;28;20271;-79
2022/09/08 01:15:16;;;;;;;4.75;2.42;;;;;;;18.89;79.44;100834.31;5040775;28;20328;-79
2022/09/08 01:17:42;;;;;;;4.32;1.95;;;;;;;18.88;79.43;100835.28;5058799;28;20029;-79
2022/09/08 01:20:09;;;;;;;4.10;1.90;;;;;;;18.86;79.32;100821.28;4996226;28;20065;-79
2022/09/08 01:23:12;;;;;;;5.13;2.00;;;;;;;18.87;79.35;100820.34;5025813;28;20110;-79
2022/09/08 01:25:54;;;;;;;4.93;2.35;;;;;;;18.86;79.22;100827.41;5055912;28;20028;-79
2022/09/08 01:28:26;;;;;;;3.47;1.80;;;;;;;18.85;79.44;100822.25;5038422;28;20220;-79
2022/09/08 01:30:53;;;;;;;4.28;1.73;;;;;;;18.85;79.41;100822.25;5022773;28;20037;-79
2022/09/08 01:33:20;;;;;;;6.47;1.80;;;;;;;18.84;79.22;100824.03;5040514;28;20335;-79
2022/09/08 01:35:45;;;;;;;8.45;1.92;;;;;;;18.85;79.31;100822.25;5041057;28;20041;-79
2022/09/08 01:38:11;;;;;;;3.40;2.63;;;;;;;18.85;79.40;100820.44;5020905;28;20329;-79
2022/09/08 01:40:40;;;;;;;3.45;1.85;;;;;;;18.85;79.43;100816.94;5024755;28;20083;-79
2022/09/08 01:43:09;;;;;;;;;;;;;;;18.84;79.44;100815.25;5040649;28;20031;-79
2022/09/08 01:45:35;;;;;;;5.82;1.92;;;;;;;18.83;79.25;100814.41;5040300;28;20198;-79
2022/09/08 01:48:01;;;;;;;4.32;1.85;;;;;;;18.83;79.55;100822.38;5037843;28;20025;-78
2022/09/08 01:50:27;;;;;;;4.53;2.17;;;;;;;18.82;79.37;100823.31;5044072;28;20084;-79
2022/09/08 01:52:52;;;;;;;5.32;1.98;;;;;;;18.81;79.35;100816.34;5034840;28;20328;-79
2022/09/08 01:55:18;;;;;;;2.65;1.80;;;;;;;18.81;79.61;100816.34;5020336;28;20045;-79
2022/09/08 01:57:43;;;;;;;3.33;1.83;;;;;;;18.81;79.36;100819.00;5021518;28;20022;-79
2022/09/08 02:00:09;;;;;;;4.22;1.55;;;;;;;18.82;79.10;100819.81;5020337;28;20136;-79
2022/09/08 02:02:36;;;;;;;11.95;2.33;;;;;;;18.80;79.12;100823.41;5019844;28;20033;-79
2022/09/08 02:05:01;;;;;;;5.78;1.52;;;;;;;18.82;79.16;100814.53;5019680;28;20034;-79
2022/09/08 02:07:27;;;;;;;4.15;1.85;;;;;;;18.82;79.09;100817.19;5037840;28;20236;-79
2022/09/08 02:09:53;;;;;;;4.93;1.60;;;;;;;18.82;78.50;100811.88;5008468;28;20352;-79
2022/09/08 02:12:19;;;;;;;4.93;1.40;;;;;;;18.80;78.65;100804.81;5035395;28;20267;-78
2022/09/08 02:14:44;;;;;;;2.20;1.13;;;;;;;18.81;78.81;100808.38;5039852;28;20031;-78
2022/09/08 02:17:12;;;;;;;2.35;1.30;;;;;;;18.80;78.66;100809.28;5011830;28;20037;-78
2022/09/08 02:19:37;;;;;;;2.95;1.13;;;;;;;18.80;78.31;100804.81;5017156;28;20064;-78
2022/09/08 02:22:03;;;;;;;4.85;1.65;;;;;;;18.80;78.19;100807.47;5049179;28;20037;-79
2022/09/08 02:24:29;;;;;;;1.90;1.25;;;;;;;18.80;77.99;100809.28;4989689;28;20386;-79
2022/09/08 02:26:54;;;;;;;1.85;1.10;;;;;;;18.80;78.06;100810.13;5018803;28;20261;-78
2022/09/08 02:29:20;;;;;;;4.47;1.40;;;;;;;18.80;78.02;100804.00;5023062;28;20040;-78
2022/09/08 02:31:45;;;;;;;2.17;1.27;;;;;;;18.80;77.96;100809.28;5020818;28;20033;-79
2022/09/08 02:34:11;;;;;;;6.30;1.20;;;;;;;18.80;77.90;100804.00;4983464;28;20229;-78
2022/09/08 02:36:36;;;;;;;3.25;1.15;;;;;;;18.79;77.81;100799.63;5009232;28;20225;-79
2022/09/08 02:39:03;;;;;;;2.80;1.20;;;;;;;18.78;77.82;100790.00;5003939;28;20064;-78
2022/09/08 02:41:29;;;;;;;2.20;1.13;;;;;;;18.78;77.74;100790.00;5026151;28;20032;-78
2022/09/08 02:43:54;;;;;;;2.63;1.38;;;;;;;18.77;77.81;100786.50;5029533;28;20103;-79
2022/09/08 02:46:20;;;;;;;2.60;1.23;;;;;;;18.77;77.94;100796.25;5022327;28;20033;-79
2022/09/08 02:48:46;;;;;;;2.85;1.17;;;;;;;18.76;77.84;100789.28;5056905;28;20071;-78
2022/09/08 02:51:14;;;;;;;2.75;1.00;;;;;;;18.76;77.88;100792.75;5025763;28;20033;-78
2022/09/08 02:53:41;;;;;;;3.37;1.10;;;;;;;18.75;78.20;100787.56;5024232;28;20359;-78
2022/09/08 02:56:08;;;;;;;6.28;1.30;;;;;;;18.75;78.27;100790.22;5033092;28;20324;-78
2022/09/08 02:58:34;;;;;;;3.38;1.30;;;;;;;18.73;78.50;100787.69;5036438;28;20029;-79
2022/09/08 03:01:00;;;;;;;1.33;1.15;;;;;;;18.73;78.69;100781.53;5013633;28;20327;-78
2022/09/08 03:03:26;;;;;;;2.63;1.13;;;;;;;18.72;78.75;100772.75;5015961;28;20038;-78
2022/09/08 03:05:52;;;;;;;2.30;1.10;;;;;;;18.72;78.81;100769.22;5034733;28;20025;-78
2022/09/08 03:08:19;;;;;;;4.50;1.40;;;;;;;18.70;78.86;100768.50;5020136;28;20045;-78
2022/09/08 03:10:44;;;;;;;1.20;1.10;;;;;;;18.70;78.80;100771.16;5002952;28;20088;-78
2022/09/08 03:13:10;;;;;;;3.78;1.52;;;;;;;18.70;78.84;100776.47;5026832;28;20039;-78
2022/09/08 03:15:36;;;;;;;1.27;1.00;;;;;;;18.68;78.94;100778.38;5027119;28;20064;-79
2022/09/08 03:18:05;;;;;;;1.45;1.00;;;;;;;18.69;78.63;100774.78;5055705;28;20040;-78
2022/09/08 03:20:33;;;;;;;1.50;1.13;;;;;;;18.68;78.36;100773.94;5020387;28;20061;-79
2022/09/08 03:22:59;;;;;;;1.97;1.00;;;;;;;18.67;78.35;100780.19;5017936;28;20317;-78
2022/09/08 03:25:25;;;;;;;2.20;1.15;;;;;;;18.68;78.30;100775.72;5021737;28;20044;-78
2022/09/08 03:27:50;;;;;;;2.63;1.02;;;;;;;18.68;78.50;100775.72;5030521;28;20036;-78
2022/09/08 03:30:17;;;;;;;2.78;0.98;;;;;;;18.66;78.44;100780.31;5018810;28;20361;-78
2022/09/08 03:32:44;;;;;;;4.25;1.20;;;;;;;18.66;78.53;100773.19;5018620;28;20116;-79
2022/09/08 03:35:11;;;;;;;3.13;1.17;;;;;;;18.66;78.54;100775.00;5001965;28;20041;-78
2022/09/08 03:37:40;;;;;;;1.83;1.20;;;;;;;18.65;78.53;100782.13;5045424;28;20056;-78
2022/09/08 03:40:10;;;;;;;1.33;0.90;;;;;;;18.65;78.46;100778.63;5036233;28;20745;-78
2022/09/08 03:42:38;;;;;;;3.42;1.23;;;;;;;18.65;78.45;100776.00;5051570;28;20042;-79
2022/09/08 03:45:06;;;;;;;2.17;1.30;;;;;;;18.64;78.63;100780.44;5051855;28;20024;-79
2022/09/08 03:47:32;;;;;;;1.33;0.90;;;;;;;18.63;78.50;100786.72;5001995;28;20084;-78
2022/09/08 03:49:58;;;;;;;5.10;1.38;;;;;;;18.63;78.24;100778.75;5018194;28;20009;-79
2022/09/08 03:52:25;;;;;;;5.43;1.20;;;;;;;18.61;78.28;100784.16;4999314;28;20197;-79
2022/09/08 03:54:51;;;;;;;3.40;1.20;;;;;;;18.61;78.15;100772.72;5024328;28;20391;-78
2022/09/08 03:57:22;;;;;;;1.40;1.10;;;;;;;18.61;78.20;100770.06;5002013;28;20057;-78
2022/09/08 03:59:52;;;;;;;2.75;1.42;;;;;;;18.60;78.58;100777.16;5017968;28;20096;-78
2022/09/08 04:02:18;;;;;;;2.25;0.98;;;;;;;18.60;78.22;100784.28;4998614;28;20029;-79
2022/09/08 04:04:48;;;;;;;2.08;1.58;;;;;;;18.59;78.11;100783.44;4989647;28;20055;-79
2022/09/08 04:07:13;;;;;;;4.25;1.42;;;;;;;18.59;78.14;100787.88;5037882;28;20037;-78
2022/09/08 04:09:41;;;;;;;4.57;1.95;;;;;;;18.59;78.16;100790.53;5021184;28;20188;-78
2022/09/08 04:12:07;;;;;;;3.72;1.50;;;;;;;18.58;78.46;100772.94;5020645;28;20040;-78
2022/09/08 04:14:33;;;;;;;3.50;1.55;;;;;;;18.58;78.45;100779.09;5013246;28;20051;-78
2022/09/08 04:16:58;;;;;;;3.17;1.75;;;;;;;18.58;78.29;100771.13;5027986;28;20033;-79
2022/09/08 04:19:24;;;;;;;3.80;1.95;;;;;;;18.57;78.48;100766.81;5001099;28;20104;-79
2022/09/08 04:21:49;;;;;;;2.33;1.60;;;;;;;18.56;78.53;100767.75;4984954;28;20033;-79
2022/09/08 04:24:15;;;;;;;2.47;1.80;;;;;;;18.56;78.32;100764.25;4985235;28;20355;-79
2022/09/08 04:26:41;;;;;;;3.40;1.77;;;;;;;18.55;78.45;100766.03;5019118;28;20080;-79
2022/09/08 04:29:07;;;;;;;3.53;1.73;;;;;;;18.55;78.53;100758.09;5035201;28;20029;-78
2022/09/08 04:31:35;;;;;;;2.15;1.83;;;;;;;18.56;78.34;100761.59;5004236;28;20079;-78
2022/09/08 04:34:01;;;;;;;2.07;1.87;;;;;;;18.54;78.46;100751.13;5035862;28;20217;-79
2022/09/08 04:36:27;;;;;;;3.85;1.90;;;;;;;18.55;78.38;100754.59;5022820;28;20296;-79
2022/09/08 04:38:57;;;;;;;2.33;1.50;;;;;;;18.53;78.26;100757.38;5039252;28;20033;-78
2022/09/08 04:41:24;;;;;;;2.97;1.80;;;;;;;18.53;78.55;100752.06;5014424;28;20042;-79
2022/09/08 04:43:49;;;;;;;6.05;2.20;;;;;;;18.54;78.55;100760.88;5035959;28;20076;-79
2022/09/08 04:46:17;;;;;;;4.18;1.85;;;;;;;18.53;78.61;100764.47;5012211;28;20041;-78
2022/09/08 04:48:43;;;;;;;3.05;1.58;;;;;;;18.53;78.71;100759.19;5041145;28;20025;-79
2022/09/08 04:51:11;;;;;;;5.40;1.20;;;;;;;18.51;78.31;100766.41;5021593;28;20232;-79
2022/09/08 04:53:36;;;;;;;4.88;1.60;;;;;;;18.51;78.54;100763.75;5021589;28;20025;-79
2022/09/08 04:56:04;;;;;;;1.98;1.30;;;;;;;18.50;78.57;100765.56;5021291;28;20394;-78
2022/09/08 04:58:31;;;;;;;3.35;1.40;;;;;;;18.49;78.22;100763.88;5002722;28;20113;-79
2022/09/08 05:01:08;;;;;;;1.77;1.30;;;;;;;18.48;78.07;100756.91;5021596;28;20336;-79
2022/09/08 05:03:34;;;;;;;3.33;1.65;;;;;;;18.47;78.20;100763.13;5037243;28;20040;-78
2022/09/08 05:06:04;;;;;;;3.13;1.75;;;;;;;18.47;78.10;100760.50;5049436;28;20025;-78
2022/09/08 05:08:30;;;;;;;2.97;1.40;;;;;;;18.46;78.26;100764.09;5022171;28;20121;-78
2022/09/08 05:10:55;;;;;;;4.47;1.70;;;;;;;18.46;78.36;100765.91;5021259;28;20378;-78
2022/09/08 05:13:21;;;;;;;3.47;1.63;;;;;;;18.45;78.17;100767.72;5021062;28;20034;-79
2022/09/08 05:15:46;;;;;;;1.70;1.33;;;;;;;18.46;77.95;100773.84;4985050;28;20337;-78
2022/09/08 05:18:11;;;;;;;1.92;1.55;;;;;;;18.45;78.22;100773.03;4982020;28;20307;-78
2022/09/08 05:20:37;;;;;;;3.40;2.08;;;;;;;18.44;78.18;100779.28;5022494;28;20251;-78
2022/09/08 05:23:02;;;;;;;3.75;1.80;;;;;;;18.43;78.40;100772.28;5020491;28;20358;-79
2022/09/08 05:25:28;;;;;;;3.45;1.60;;;;;;;18.41;78.10;100776.88;5021123;28;20195;-79
2022/09/08 05:27:53;;;;;;;4.68;1.70;;;;;;;18.42;78.26;100767.94;5023149;28;20026;-79
2022/09/08 05:30:19;;;;;;;2.10;1.70;;;;;;;18.41;78.74;100771.56;5000312;28;20053;-78
2022/09/08 05:32:44;;;;;;;3.10;1.80;;;;;;;18.40;78.79;100769.88;5030480;28;20018;-79
2022/09/08 05:35:09;;;;;;;2.80;1.58;;;;;;;18.40;79.06;100762.75;5023797;28;20037;-79
2022/09/08 05:37:35;;;;;;;3.17;1.85;;;;;;;18.39;79.24;100760.19;5023563;28;20038;-79
2022/09/08 05:40:01;;;;;;;2.05;1.60;;;;;;;18.37;79.28;100760.34;5009962;28;20336;-79
2022/09/08 05:42:26;;;;;;;1.60;1.50;;;;;;;18.37;79.42;100756.81;5001302;28;20048;-79
2022/09/08 05:44:51;;;;;;;1.98;1.50;;;;;;;18.37;79.56;100756.81;5002392;28;20363;-79
2022/09/08 05:47:17;;;;;;;1.50;1.40;;;;;;;18.37;79.44;100754.19;5030705;28;20037;-79
2022/09/08 05:49:43;;;;;;;2.42;1.52;;;;;;;18.36;79.66;100757.81;5031869;28;20064;-79
2022/09/08 05:52:08;;;;;;;3.58;1.60;;;;;;;18.35;79.85;100764.06;5001725;28;20069;-79
2022/09/08 05:54:35;;;;;;;1.33;1.23;;;;;;;18.35;79.98;100761.41;5000928;28;20253;-79
2022/09/08 05:57:00;;;;;;;4.80;1.73;;;;;;;18.34;79.66;100763.22;5034235;28;20065;-79
2022/09/08 05:59:26;;;;;;;1.55;1.45;;;;;;;18.33;79.99;100766.81;5029019;28;20044;-79
2022/09/08 06:01:51;;;;;;;1.50;1.40;;;;;;;18.33;80.01;100758.03;5019642;28;20044;-79
2022/09/08 06:04:18;;;;;;;2.08;1.30;;;;;;;18.32;79.90;100758.97;4995917;28;20339;-79
2022/09/08 06:06:44;;;;;;;2.13;1.52;;;;;;;18.32;80.18;100749.22;5023618;28;20209;-79
2022/09/08 06:09:12;;;;;;;2.67;1.83;;;;;;;18.31;80.64;100754.66;5048913;28;20354;-79
2022/09/08 06:11:38;;;;;;;4.13;1.88;;;;;;;18.31;80.33;100752.00;5005100;28;20106;-79
2022/09/08 06:14:05;;;;;;;2.53;1.90;;;;;;;18.28;80.34;100754.88;5003847;28;20038;-80
2022/09/08 06:16:31;;;;;;;3.08;2.00;;;;;;;18.28;80.60;100752.22;5004152;28;20033;-79
2022/09/08 06:18:58;;;;;;;2.30;2.10;;;;;;;18.28;80.77;100754.88;5020096;28;20363;-78
2022/09/08 06:21:26;;;;;;;2.45;2.22;;;;;;;18.27;80.64;100754.03;5004019;28;20064;-79
2022/09/08 06:23:58;;;;;;;3.20;2.20;;;;;;;18.27;80.97;100750.53;5020205;28;20340;-80
2022/09/08 06:26:33;;;;;;;2.30;2.20;;;;;;;18.27;80.76;100758.50;5001411;28;20225;-79
2022/09/08 06:29:04;;;;;;;2.83;2.50;;;;;;;18.26;80.92;100754.13;5032467;28;20359;-79
2022/09/08 06:31:37;;;;;;;2.70;2.50;;;;;;;18.26;80.73;100762.09;5009404;28;20060;-79
2022/09/08 06:34:15;;;;;;;3.47;3.17;;;;;;;18.25;80.82;100771.84;5001372;28;20157;-79
2022/09/08 06:36:50;;;;;;;3.42;3.10;;;;;;;18.25;80.66;100760.41;5013388;28;20032;-79
2022/09/08 06:39:47;;;;;;;6.85;4.25;;;;;;;18.24;80.46;100767.50;5048897;28;20032;-79
2022/09/08 06:42:20;;;;;;;4.88;4.32;;;;;;;18.25;80.68;100757.75;5032223;28;20302;-79
2022/09/08 06:44:51;;;;;;;4.43;3.85;;;;;;;18.23;81.05;100766.66;5034259;28;20570;-80
2022/09/08 06:47:19;;;;;;;5.03;4.25;;;;;;;18.23;80.69;100761.34;5015202;28;20029;-79
2022/09/08 06:49:45;;;;;;;6.05;4.30;;;;;;;18.23;80.67;100769.31;5018703;28;20053;-79
2022/09/08 06:52:23;;;;;;;4.53;4.13;;;;;;;18.23;80.57;100761.34;5015766;28;20048;-79
2022/09/08 06:55:08;;;;;;;5.05;4.43;;;;;;;18.24;80.74;100764.84;5016616;28;20306;-79
2022/09/08 06:57:47;;;;;;;6.95;4.57;;;;;;;18.25;80.69;100763.06;5034044;28;20336;-79
2022/09/08 07:00:23;;;;;;;6.88;4.75;;;;;;;18.23;80.75;100758.72;5015429;28;20040;-79
2022/09/08 07:03:07;;;;;;;4.82;4.38;;;;;;;18.24;80.83;100759.53;5013986;28;20064;-79
2022/09/08 07:05:57;;;;;;;4.88;4.45;;;;;;;18.23;80.84;100763.19;5015668;28;20261;-79
2022/09/08 07:08:37;;;;;;;5.47;4.97;;;;;;;18.22;80.90;100762.31;5010504;28;20297;-79
2022/09/08 07:11:06;;;;;;;5.15;4.75;;;;;;;18.24;80.99;100767.50;5007537;28;20084;-79
2022/09/08 07:13:43;;;;;;;5.88;5.20;;;;;;;18.23;80.88;100768.47;5005235;28;20022;-79
2022/09/08 07:16:17;;;;;;;5.32;4.75;;;;;;;18.23;81.03;100768.47;5032866;28;20037;-79
2022/09/08 07:18:52;;;;;;;5.95;5.35;;;;;;;18.23;81.40;100769.31;5015719;28;20037;-79
2022/09/08 07:21:53;;;;;;;5.97;4.93;;;;;;;18.23;81.06;100766.66;5001522;28;20049;-78
2022/09/08 07:24:23;;;;;;;5.75;5.13;;;;;;;18.25;81.44;100763.06;4999247;28;20029;-79
2022/09/08 07:27:01;;;;;;;8.10;5.65;;;;;;;18.24;81.25;100764.84;4998611;28;20033;-79
2022/09/08 07:29:33;;;;;;;6.88;6.28;;;;;;;18.23;81.35;100769.31;5022837;28;20030;-79
2022/09/08 07:32:00;;;;;;;7.45;6.47;;;;;;;18.23;81.29;100768.47;5008173;28;20029;-78
2022/09/08 07:34:28;;;;;;;7.45;6.55;;;;;;;18.24;81.62;100770.16;5003357;28;20232;-79
2022/09/08 07:37:03;;;;;;;7.53;6.83;;;;;;;18.23;81.38;100771.13;5014728;28;20084;-79
2022/09/08 07:39:53;;;;;;;7.93;7.22;;;;;;;18.23;81.23;100765.81;4999018;28;20292;-79
2022/09/08 07:42:19;;;;;;;7.85;7.15;;;;;;;18.23;81.22;100761.34;5027730;28;20276;-78
2022/09/08 07:44:46;;;;;;;8.25;7.40;;;;;;;18.24;81.21;100767.50;4999122;28;20260;-78
2022/09/08 07:47:31;;;;;;;8.13;7.32;;;;;;;18.23;81.04;100764.00;4996037;28;20333;-79
2022/09/08 07:50:08;;;;;;;8.57;7.68;;;;;;;18.24;81.19;100767.50;5029301;28;20037;-79
2022/09/08 07:53:03;;;;;;;7.47;6.78;;;;;;;18.23;80.81;100771.13;5011975;28;20029;-79
2022/09/08 07:55:46;;;;;;;7.22;6.72;;;;;;;18.22;80.66;100767.59;5013189;28;20283;-79
2022/09/08 07:58:27;;;;;;;7.45;6.55;;;;;;;18.22;80.68;100766.78;4998819;28;20139;-79
2022/09/08 08:01:17;;;;;;;7.15;6.45;;;;;;;18.21;80.38;100771.25;5033662;28;20313;-79
2022/09/08 08:03:49;;;;;;;6.55;5.90;;;;;;;18.21;79.90;100770.41;5017563;28;20341;-79
2022/09/08 08:06:32;;;;;;;7.57;6.75;;;;;;;18.18;80.73;100776.75;5004639;28;20085;-79
2022/09/08 08:09:19;;;;;;;6.40;5.80;;;;;;;18.19;80.85;100775.81;5040352;28;20241;-79
2022/09/08 08:12:20;;;;;;;6.43;5.93;;;;;;;18.19;80.78;100786.41;5008702;28;20104;-79
2022/09/08 08:15:01;;;;;;;5.13;4.75;;;;;;;18.20;80.36;100782.78;5013401;28;20054;-79
2022/09/08 08:17:37;;;;;;;4.70;4.30;;;;;;;18.20;80.20;100784.59;5022439;28;20029;-79
2022/09/08 08:20:09;;;;;;;5.32;4.88;;;;;;;18.21;80.04;100786.31;5036264;28;20060;-79
2022/09/08 08:23:12;;;;;;;5.32;4.93;;;;;;;18.22;79.94;100790.63;5041767;28;20037;-78
2022/09/08 08:25:52;;;;;;;4.50;4.15;;;;;;;18.23;79.77;100784.38;5012546;28;20033;-78
2022/09/08 08:28:19;;;;;;;5.13;4.65;;;;;;;18.23;80.37;100787.03;5030239;28;20018;-79
2022/09/08 08:30:48;;;;;;;4.80;4.40;;;;;;;18.22;80.47;100791.47;5000169;28;20209;-79
2022/09/08 08:33:21;;;;;;;4.57;4.20;;;;;;;18.23;80.33;100787.03;5015873;28;20328;-79
2022/09/08 08:35:52;;;;;;;4.75;4.43;;;;;;;18.25;80.90;100786.94;5013017;28;20029;-78
2022/09/08 08:38:23;;;;;;;3.83;3.53;;;;;;;18.25;80.46;100785.09;5013831;28;20116;-79
2022/09/08 08:40:57;;;;;;;3.83;3.50;;;;;;;18.27;80.41;100790.31;5006832;28;20040;-79
2022/09/08 08:43:51;;;;;;;3.63;3.17;;;;;;;18.28;80.47;100795.50;4996791;28;20121;-78
2022/09/08 08:46:44;;;;;;;3.40;3.10;;;;;;;18.29;80.71;100791.88;5011441;28;20340;-79
2022/09/08 08:49:25;;;;;;;4.55;3.05;;;;;;;18.29;80.44;100793.69;5009005;28;20056;-79
2022/09/08 08:52:22;;;;;;;2.58;2.38;;;;;;;18.30;80.39;100800.66;5007317;28;20034;-79
2022/09/08 08:54:50;;;;;;;2.42;2.22;;;;;;;18.31;80.42;100812.97;5013301;28;20057;-79
2022/09/08 08:57:24;;;;;;;2.95;2.63;;;;;;;18.29;80.18;100805.13;5016517;28;20033;-78
2022/09/08 09:00:19;;;;;;;3.30;2.47;;;;;;;18.29;79.78;100805.13;5027985;28;20029;-79
2022/09/08 09:02:47;;;;;;;2.40;2.20;;;;;;;18.28;79.20;100808.75;5011145;28;20040;-79
2022/09/08 09:05:28;;;;;;;2.53;2.33;;;;;;;18.29;79.60;100805.13;5014392;28;20031;-79
2022/09/08 09:08:02;;;;;;;2.63;2.42;;;;;;;18.29;79.68;100805.13;5013851;28;20037;-79
2022/09/08 09:11:05;;;;;;;3.45;2.20;;;;;;;18.29;79.16;100806.94;5016584;28;20068;-79
2022/09/08 09:13:51;;;;;;;4.20;2.10;;;;;;;18.29;79.09;100804.28;5004552;28;20047;-79
2022/09/08 09:16:19;;;;;;;2.67;1.98;;;;;;;18.27;79.27;100798.25;5028055;28;20029;-79
2022/09/08 09:19:11;;;;;;;1.95;1.85;;;;;;;18.28;79.34;100798.16;5034000;28;20317;-78
2022/09/08 09:21:56;;;;;;;4.35;2.30;;;;;;;18.29;79.68;100794.53;5008494;28;20103;-78
2022/09/08 09:24:44;;;;;;;2.22;1.67;;;;;;;18.28;79.57;100805.22;5017207;28;20025;-79
2022/09/08 09:27:16;;;;;;;;;;;;;;;18.29;79.58;100799.81;5020513;28;20254;-79
2022/09/08 09:29:42;;;;;;;2.97;1.25;;;;;;;18.28;79.18;100792.84;5025723;28;19913;-79
2022/09/08 09:32:11;;;;;;;1.45;1.30;;;;;;;18.30;78.52;100798.00;5002435;28;20073;-79
2022/09/08 09:34:36;;;;;;;;;;;;;;;18.30;78.72;100798.00;5020280;28;20390;-79
2022/09/08 09:37:26;;;;;;;2.97;1.23;;;;;;;18.30;78.69;100800.66;5015340;28;19996;-79
2022/09/08 09:39:56;;;;;;;2.08;1.17;;;;;;;18.30;78.82;100798.88;5019483;28;20049;-79
2022/09/08 09:42:46;;;;;;;2.90;1.20;;;;;;;18.31;78.47;100807.66;5019982;28;20212;-78
2022/09/08 09:45:44;;;;;;;5.68;1.35;;;;;;;18.30;78.70;100809.47;5016591;28;20300;-78
2022/09/08 09:48:39;;;;;;;4.95;1.55;;;;;;;18.30;78.84;100808.59;4997038;28;20105;-79
2022/09/08 09:51:34;;;;;;;3.28;1.38;;;;;;;18.30;78.91;100798.88;5014825;28;20324;-79
2022/09/08 09:54:01;;;;;;;4.90;1.45;;;;;;;18.30;78.96;100804.19;5004779;28;20036;-79
2022/09/08 09:56:57;;;;;;;3.42;1.52;;;;;;;18.31;78.78;100808.50;5014154;28;20025;-78
2022/09/08 09:59:42;;;;;;;2.33;1.50;;;;;;;18.32;78.82;100798.72;5021043;28;20037;-79
2022/09/08 10:02:29;;;;;;;3.67;1.98;;;;;;;18.33;79.27;100803.09;5017468;28;20150;-79
2022/09/08 10:04:58;;;;;;;2.97;1.50;;;;;;;18.36;79.60;100797.56;5015503;28;20029;-79
2022/09/08 10:07:23;;;;;;;5.25;1.55;;;;;;;18.38;79.33;100801.78;5018595;28;20041;-78
2022/09/08 10:10:17;;;;;;;4.30;1.90;;;;;;;18.39;79.93;100798.19;5032595;28;20041;-79
2022/09/08 10:13:20;;;;;;;2.60;1.45;;;;;;;18.43;79.47;100796.16;5012733;28;20052;-78
2022/09/08 10:16:30;;;;;;;4.15;1.50;;;;;;;18.46;79.22;100795.06;5029479;28;20030;-79
2022/09/08 10:19:20;;;;;;;5.20;1.65;;;;;;;18.46;79.87;100798.56;5010992;28;20057;-79
2022/09/08 10:22:31;;;;;;;4.18;1.20;;;;;;;18.51;79.47;100795.56;5024462;28;20068;-79
2022/09/08 10:25:21;;;;;;;2.95;1.40;;;;;;;18.53;79.40;100793.66;4990279;28;20105;-79
2022/09/08 10:28:06;;;;;;;3.20;1.10;;;;;;;18.55;79.43;100799.69;4993610;28;20029;-79
2022/09/08 10:30:56;;;;;;;4.28;1.40;;;;;;;18.54;78.77;100793.53;4992004;28;20109;-79
2022/09/08 10:33:46;;;;;;;4.43;1.58;;;;;;;18.54;78.77;100805.97;4995357;28;20113;-79
2022/09/08 10:36:12;;;;;;;1.77;1.10;;;;;;;18.56;78.38;100791.63;5018176;28;20065;-79
2022/09/08 10:38:55;;;;;;;3.03;1.25;;;;;;;18.58;77.98;100799.47;4980790;28;20026;-79
2022/09/08 10:41:39;;;;;;;7.70;1.48;;;;;;;18.61;79.84;100801.91;4988180;28;20050;-79
2022/09/08 10:44:21;;;;;;;3.22;1.63;;;;;;;18.64;78.56;100798.16;5001247;28;20310;-78
2022/09/08 10:47:05;;;;;;;2.85;1.17;;;;;;;18.66;78.14;100801.53;5015928;28;20091;-79
2022/09/08 10:49:57;;;;;;;3.13;1.40;;;;;;;18.69;77.77;100793.34;4989893;28;20329;-79
2022/09/08 10:52:31;;;;;;;4.60;1.20;;;;;;;18.68;77.19;100789.88;4991042;28;20041;-79
2022/09/08 10:54:59;;;;;;;6.68;1.30;;;;;;;18.73;77.24;100805.41;5006879;28;20077;-79
2022/09/08 10:57:49;;;;;;;1.85;1.15;;;;;;;18.76;77.26;100797.22;5015400;28;20030;-79
2022/09/08 11:00:19;;;;;;;3.60;1.33;;;;;;;18.77;77.65;100797.13;4999567;28;20113;-78
2022/09/08 11:03:21;;;;;;;5.25;1.70;;;;;;;18.79;77.37;100791.66;4983562;28;20401;-78
2022/09/08 11:05:57;;;;;;;4.13;1.65;;;;;;;18.79;77.15;100799.63;5019349;28;20061;-78
2022/09/08 11:08:57;;;;;;;5.95;1.30;;;;;;;18.82;77.53;100803.91;5007841;28;20060;-78
2022/09/08 11:11:29;;;;;;;1.55;1.20;;;;;;;18.85;77.60;100809.00;4976236;28;20042;-79
2022/09/08 11:14:05;;;;;;;5.80;1.45;;;;;;;18.89;77.55;100802.47;4982777;28;20348;-78
2022/09/08 11:17:04;;;;;;;3.38;1.40;;;;;;;18.92;77.20;100794.28;5003650;28;20381;-79
2022/09/08 11:19:50;;;;;;;7.63;1.58;;;;;;;18.94;76.78;100795.03;4993464;28;20056;-79
2022/09/08 11:22:45;;;;;;;4.45;1.70;;;;;;;18.95;76.59;100796.69;5028758;28;20065;-78
2022/09/08 11:25:22;;;;;;;2.88;1.58;;;;;;;18.96;76.91;100793.09;5023639;28;20282;-78
2022/09/08 11:28:16;;;;;;;4.03;1.40;;;;;;;18.98;76.74;100796.47;4998807;28;20029;-78
2022/09/08 11:31:12;;;;;;;7.90;1.65;;;;;;;19.02;76.93;100794.44;5017008;28;20033;-78
2022/09/08 11:34:07;;;;;;;3.55;1.55;;;;;;;19.06;76.98;100785.25;5031114;28;20108;-78
2022/09/08 11:36:40;;;;;;;7.53;1.80;;;;;;;19.11;77.07;100796.38;4989534;28;20045;-79
2022/09/08 11:39:11;;;;;;;4.35;1.55;;;;;;;19.15;76.63;100795.16;5006922;28;20073;-78
2022/09/08 11:42:07;;;;;;;2.22;1.52;;;;;;;19.19;76.58;100793.94;5027035;28;20025;-78
2022/09/08 11:44:39;;;;;;;4.32;1.40;;;;;;;19.23;75.81;100790.13;5031453;28;20072;-78
2022/09/08 11:47:18;;;;;;;1.83;1.20;;;;;;;19.27;75.88;100785.41;5007541;28;20508;-78
2022/09/08 11:50:15;;;;;;;4.03;1.23;;;;;;;19.30;75.92;100793.13;5016256;28;20253;-78
2022/09/08 11:53:22;;;;;;;5.47;1.80;;;;;;;19.32;75.71;100785.91;5011220;28;20120;-78
2022/09/08 11:56:09;;;;;;;3.53;1.20;;;;;;;19.32;75.23;100780.59;5017442;28;20106;-81
2022/09/08 11:59:13;;;;;;;4.35;1.13;;;;;;;19.32;75.34;100777.94;5001020;28;20029;-78
2022/09/08 12:02:03;;;;;;;4.07;1.20;;;;;;;19.32;75.05;100773.47;4966131;28;20069;-79
2022/09/08 12:04:29;;;;;;;3.65;1.50;;;;;;;19.33;74.70;100775.13;5008604;28;20060;-78
2022/09/08 12:07:26;;;;;;;7.20;1.77;;;;;;;19.35;74.49;100769.72;5001791;28;20401;-79